Time,TemperatureF,DewpointF,PressureIn,WindDirection,WindDirectionDegrees,WindSpeedMPH,WindSpeedGustMPH,Humidity,HourlyPrecipIn,Conditions,Clouds,dailyrainin,SoftwareType,DateUTC
2013-04-14 00:00:00,64.2,56.1,29.79,ESE,119,3.5,3.5,75,0.00,CLR,,0.00,WeatherDisplay:10.37,2013-04-14 05:00:00,
2013-04-14 00:05:00,64.0,55.9,29.79,SSE,158,2.3,2.3,75,0.00,CLR,,0.00,WeatherDisplay:10.37,2013-04-14 05:05:00,
2013-04-14 00:10:00,63.9,56.2,29.80,SSE,158,2.3,2.3,76,0.00,CLR,,0.00,WeatherDisplay:10.37,2013-04-14 05:10:00,
2013-04-14 00:15:00,63.7,56.0,29.79,SSE,167,1.2,1.2,76,0.00,CLR,,0.00,WeatherDisplay:10.37,2013-04-14 05:15:00,
2013-04-14 00:20:00,63.5,56.2,29.79,ESE,121,0.0,0.0,77,0.00,CLR,,0.00,WeatherDisplay:10.37,2013-04-14 05:20:00,
2013-04-14 00:25:00,63.3,56.0,29.79,SE,142,1.2,1.2,77,0.00,CLR,,0.00,WeatherDisplay:10.37,2013-04-14 05:25:00,
2013-04-14 00:30:00,63.1,56.1,29.79,SSE,160,2.3,2.3,78,0.00,CLR,,0.00,WeatherDisplay:10.37,2013-04-14 05:30:00,
2013-04-14 00:35:00,62.9,55.9,29.79,South,186,2.3,2.3,78,0.00,CLR,,0.00,WeatherDisplay:10.37,2013-04-14 05:35:00,
2013-04-14 00:40:00,62.7,55.7,29.79,South,186,1.2,0.0,78,0.00,CLR,,0.00,WeatherDisplay:10.37,2013-04-14 05:40:00,
2013-04-14 00:45:00,62.5,55.9,29.78,South,188,0.0,0.0,79,0.00,CLR,,0.00,WeatherDisplay:10.37,2013-04-14 05:45:00,
2013-04-14 00:50:00,62.4,56.1,29.78,South,188,1.2,0.0,80,0.00,CLR,,0.00,WeatherDisplay:10.37,2013-04-14 05:50:00,
2013-04-14 00:55:00,62.3,56.0,29.77,South,186,1.2,1.2,80,0.00,CLR,,0.00,WeatherDisplay:10.37,2013-04-14 05:55:00,
2013-04-14 01:00:00,62.1,55.9,29.77,South,186,0.0,0.0,80,0.00,CLR,,0.00,WeatherDisplay:10.37,2013-04-14 06:00:00,
2013-04-14 01:05:00,61.9,55.7,29.78,South,186,1.2,1.2,80,0.00,CLR,,0.00,WeatherDisplay:10.37,2013-04-14 06:05:00,
2013-04-14 01:10:00,61.7,55.5,29.78,South,186,0.0,0.0,80,0.00,CLR,,0.00,WeatherDisplay:10.37,2013-04-14 06:10:00,
2013-04-14 01:15:00,61.5,55.3,29.78,South,186,0.0,0.0,80,0.00,CLR,,0.00,WeatherDisplay:10.37,2013-04-14 06:15:00,
2013-04-14 01:20:00,61.3,55.1,29.78,South,186,1.2,1.2,80,0.00,CLR,,0.00,WeatherDisplay:10.37,2013-04-14 06:20:00,
2013-04-14 01:25:00,61.1,55.2,29.78,South,186,1.2,0.0,81,0.00,CLR,,0.00,WeatherDisplay:10.37,2013-04-14 06:25:00,
2013-04-14 01:30:00,60.9,55.0,29.78,South,186,0.0,0.0,81,0.00,CLR,,0.00,WeatherDisplay:10.37,2013-04-14 06:30:00,
2013-04-14 01:35:00,60.7,54.8,29.78,South,186,0.0,0.0,81,0.00,CLR,,0.00,WeatherDisplay:10.37,2013-04-14 06:35:00,
2013-04-14 01:40:00,60.5,54.6,29.77,South,186,0.0,0.0,81,0.00,CLR,,0.00,WeatherDisplay:10.37,2013-04-14 06:40:00,
2013-04-14 01:45:00,60.2,54.7,29.77,South,186,0.0,0.0,82,0.00,CLR,,0.00,WeatherDisplay:10.37,2013-04-14 06:45:00,
2013-04-14 01:50:00,60.0,54.5,29.76,South,186,0.0,0.0,82,0.00,CLR,,0.00,WeatherDisplay:10.37,2013-04-14 06:50:00,
2013-04-14 01:56:00,59.7,54.5,29.76,South,186,0.0,0.0,83,0.00,CLR,,0.00,WeatherDisplay:10.37,2013-04-14 06:56:00,
2013-04-14 02:00:00,59.5,54.0,29.76,South,186,0.0,0.0,82,0.00,CLR,,0.00,WeatherDisplay:10.37,2013-04-14 07:00:00,
2013-04-14 02:05:00,59.3,54.1,29.76,South,186,0.0,0.0,83,0.00,CLR,,0.00,WeatherDisplay:10.37,2013-04-14 07:05:00,
2013-04-14 02:10:00,59.1,54.3,29.76,South,186,0.0,0.0,84,0.00,CLR,,0.00,WeatherDisplay:10.37,2013-04-14 07:10:00,
2013-04-14 02:15:00,58.9,54.4,29.75,South,186,0.0,0.0,85,0.00,CLR,,0.00,WeatherDisplay:10.37,2013-04-14 07:15:00,
2013-04-14 02:20:00,58.8,54.3,29.75,South,186,0.0,0.0,85,0.00,CLR,,0.00,WeatherDisplay:10.37,2013-04-14 07:20:00,
2013-04-14 02:25:00,58.7,54.2,29.75,South,186,0.0,0.0,85,0.00,CLR,,0.00,WeatherDisplay:10.37,2013-04-14 07:25:00,
2013-04-14 02:30:00,58.6,54.4,29.75,South,186,0.0,0.0,86,0.00,CLR,,0.00,WeatherDisplay:10.37,2013-04-14 07:30:00,
2013-04-14 02:35:00,58.5,54.3,29.74,South,186,0.0,0.1,86,0.00,CLR,,0.00,WeatherDisplay:10.37,2013-04-14 07:35:00,
2013-04-14 02:40:00,58.4,54.2,29.73,South,186,0.0,0.0,86,0.00,CLR,,0.00,WeatherDisplay:10.37,2013-04-14 07:40:00,
2013-04-14 02:45:00,58.2,54.3,29.73,South,186,0.0,0.0,87,0.00,CLR,,0.00,WeatherDisplay:10.37,2013-04-14 07:45:00,
2013-04-14 02:50:00,58.2,54.3,29.72,South,186,0.0,0.0,87,0.00,CLR,,0.00,WeatherDisplay:10.37,2013-04-14 07:50:00,
2013-04-14 02:55:00,58.1,54.2,29.72,South,186,0.0,0.0,87,0.00,CLR,,0.00,WeatherDisplay:10.37,2013-04-14 07:55:00,
2013-04-14 03:00:00,58.0,54.5,29.72,South,186,0.0,0.0,88,0.00,CLR,,0.00,WeatherDisplay:10.37,2013-04-14 08:00:00,
2013-04-14 03:05:00,58.0,54.5,29.72,South,186,0.0,0.0,88,0.00,CLR,,0.00,WeatherDisplay:10.37,2013-04-14 08:05:00,
2013-04-14 03:10:00,58.0,54.5,29.72,South,186,0.0,0.0,88,0.00,CLR,,0.00,WeatherDisplay:10.37,2013-04-14 08:10:00,
2013-04-14 03:15:00,58.1,54.6,29.72,South,186,0.0,0.1,88,0.00,CLR,,0.00,WeatherDisplay:10.37,2013-04-14 08:15:00,
2013-04-14 03:20:00,58.1,54.9,29.72,South,190,2.3,2.3,89,0.00,CLR,,0.00,WeatherDisplay:10.37,2013-04-14 08:20:00,
2013-04-14 03:25:00,58.3,55.1,29.72,South,191,2.3,2.3,89,0.00,CLR,,0.00,WeatherDisplay:10.37,2013-04-14 08:25:00,
2013-04-14 03:31:00,58.4,55.5,29.71,South,186,0.0,0.3,90,0.00,CLR,,0.00,WeatherDisplay:10.37,2013-04-14 08:31:00,
2013-04-14 03:36:00,58.6,55.7,29.71,South,186,1.2,0.0,90,0.00,CLR,,0.00,WeatherDisplay:10.37,2013-04-14 08:36:00,
2013-04-14 03:41:00,58.7,55.8,29.71,South,186,0.0,0.0,90,0.00,CLR,,0.00,WeatherDisplay:10.37,2013-04-14 08:41:00,
2013-04-14 03:46:00,58.7,55.8,29.71,South,186,0.0,0.0,90,0.00,CLR,,0.00,WeatherDisplay:10.37,2013-04-14 08:46:00,
2013-04-14 03:51:00,58.9,56.0,29.70,South,186,0.0,0.0,90,0.00,CLR,,0.00,WeatherDisplay:10.37,2013-04-14 08:51:00,
2013-04-14 03:56:00,59.0,56.1,29.70,SSW,201,1.2,1.2,90,0.00,CLR,,0.00,WeatherDisplay:10.37,2013-04-14 08:56:00,
2013-04-14 04:01:00,59.0,55.8,29.70,SSW,201,0.0,0.0,89,0.00,CLR,,0.00,WeatherDisplay:10.37,2013-04-14 09:01:00,
2013-04-14 04:06:00,59.1,56.2,29.70,SSW,201,0.0,0.0,90,0.00,CLR,,0.00,WeatherDisplay:10.37,2013-04-14 09:06:00,
2013-04-14 04:11:00,59.1,56.2,29.70,SSW,201,0.0,0.0,90,0.00,CLR,,0.00,WeatherDisplay:10.37,2013-04-14 09:11:00,
2013-04-14 04:16:00,59.2,56.3,29.70,SSW,201,0.0,0.0,90,0.00,CLR,,0.00,WeatherDisplay:10.37,2013-04-14 09:16:00,
2013-04-14 04:21:00,59.2,56.0,29.69,SSW,201,0.0,0.0,89,0.00,CLR,,0.00,WeatherDisplay:10.37,2013-04-14 09:21:00,
2013-04-14 04:26:00,59.1,55.5,29.69,SSW,201,0.0,0.0,88,0.00,CLR,,0.00,WeatherDisplay:10.37,2013-04-14 09:26:00,
2013-04-14 04:31:00,58.9,55.4,29.70,SSW,201,0.0,0.0,88,0.00,CLR,,0.00,WeatherDisplay:10.37,2013-04-14 09:31:00,
2013-04-14 04:36:00,58.7,55.2,29.70,SSW,201,0.0,0.0,88,0.00,CLR,,0.00,WeatherDisplay:10.37,2013-04-14 09:36:00,
2013-04-14 04:41:00,58.5,54.6,29.70,SSW,201,0.0,0.0,87,0.00,CLR,,0.00,WeatherDisplay:10.37,2013-04-14 09:41:00,
2013-04-14 04:46:00,58.3,54.4,29.70,SSW,201,0.0,0.0,87,0.00,CLR,,0.00,WeatherDisplay:10.37,2013-04-14 09:46:00,
2013-04-14 04:52:00,58.1,54.6,29.70,SSW,201,0.0,0.0,88,0.00,CLR,,0.00,WeatherDisplay:10.37,2013-04-14 09:52:00,
2013-04-14 04:57:00,58.1,54.6,29.70,SSW,201,0.0,0.0,88,0.00,CLR,,0.00,WeatherDisplay:10.37,2013-04-14 09:57:00,
2013-04-14 05:02:00,58.1,55.2,29.71,SSW,201,0.0,0.1,90,0.00,CLR,,0.00,WeatherDisplay:10.37,2013-04-14 10:02:00,
2013-04-14 05:07:00,58.2,55.3,29.71,SSW,212,0.0,0.0,90,0.00,CLR,,0.00,WeatherDisplay:10.37,2013-04-14 10:07:00,
2013-04-14 05:12:00,58.2,55.3,29.71,SSW,212,0.0,0.0,90,0.00,CLR,,0.00,WeatherDisplay:10.37,2013-04-14 10:12:00,
2013-04-14 05:17:00,58.3,55.7,29.71,SSW,212,0.0,0.0,91,0.00,CLR,,0.00,WeatherDisplay:10.37,2013-04-14 10:17:00,
2013-04-14 05:22:00,58.5,55.9,29.71,SSW,212,0.0,0.0,91,0.00,CLR,,0.00,WeatherDisplay:10.37,2013-04-14 10:22:00,
2013-04-14 05:27:00,58.6,56.0,29.71,SSW,212,0.0,0.1,91,0.00,CLR,,0.00,WeatherDisplay:10.37,2013-04-14 10:27:00,
2013-04-14 05:32:00,58.7,56.1,29.71,SSW,212,0.0,0.0,91,0.00,CLR,,0.00,WeatherDisplay:10.37,2013-04-14 10:32:00,
2013-04-14 05:37:00,58.8,56.2,29.70,SSW,212,1.2,0.0,91,0.00,CLR,,0.00,WeatherDisplay:10.37,2013-04-14 10:37:00,
2013-04-14 05:42:00,59.0,56.7,29.70,SSW,207,2.3,2.3,92,0.00,CLR,,0.00,WeatherDisplay:10.37,2013-04-14 10:42:00,
2013-04-14 05:47:00,59.1,56.8,29.70,SSW,207,0.0,0.0,92,0.00,CLR,,0.00,WeatherDisplay:10.37,2013-04-14 10:47:00,
2013-04-14 05:52:00,59.2,56.6,29.70,SSW,207,0.0,0.0,91,0.00,CLR,,0.00,WeatherDisplay:10.37,2013-04-14 10:52:00,
2013-04-14 05:57:00,59.3,56.7,29.70,SSW,207,0.0,0.0,91,0.00,CLR,,0.00,WeatherDisplay:10.37,2013-04-14 10:57:00,
2013-04-14 06:02:00,59.4,57.1,29.70,SSW,207,0.0,0.0,92,0.00,CLR,,0.00,WeatherDisplay:10.37,2013-04-14 11:02:00,
2013-04-14 06:07:00,59.5,56.9,29.70,SSW,207,0.0,0.0,91,0.00,CLR,,0.00,WeatherDisplay:10.37,2013-04-14 11:07:00,
2013-04-14 06:12:00,59.5,56.9,29.71,SSW,207,0.0,0.0,91,0.00,CLR,,0.00,WeatherDisplay:10.37,2013-04-14 11:12:00,
2013-04-14 06:17:00,59.6,57.0,29.70,SSW,207,1.2,1.2,91,0.00,CLR,,0.00,WeatherDisplay:10.37,2013-04-14 11:17:00,
2013-04-14 06:22:00,59.7,57.1,29.70,South,188,0.0,0.2,91,0.00,CLR,,0.00,WeatherDisplay:10.37,2013-04-14 11:22:00,
2013-04-14 06:27:00,59.8,57.2,29.70,South,188,0.0,0.1,91,0.00,CLR,,0.00,WeatherDisplay:10.37,2013-04-14 11:27:00,
2013-04-14 06:32:00,59.9,57.3,29.70,South,188,1.2,0.0,91,0.00,CLR,,0.00,WeatherDisplay:10.37,2013-04-14 11:32:00,
2013-04-14 06:37:00,60.0,57.4,29.70,South,190,2.3,2.3,91,0.00,CLR,,0.00,WeatherDisplay:10.37,2013-04-14 11:37:00,
2013-04-14 06:42:00,60.1,57.5,29.70,South,188,1.2,0.0,91,0.00,CLR,,0.00,WeatherDisplay:10.37,2013-04-14 11:42:00,
2013-04-14 06:47:00,60.1,57.8,29.70,South,188,1.0,0.0,92,0.00,CLR,,0.00,WeatherDisplay:10.37,2013-04-14 11:47:00,
2013-04-14 06:52:00,60.2,57.9,29.70,South,186,2.3,2.3,92,0.00,CLR,,0.00,WeatherDisplay:10.37,2013-04-14 11:52:00,
2013-04-14 06:57:00,60.4,58.1,29.70,SW,219,2.3,2.3,92,0.00,CLR,,0.00,WeatherDisplay:10.37,2013-04-14 11:57:00,
2013-04-14 07:02:00,60.5,58.2,29.70,South,183,1.2,0.0,92,0.00,CLR,,0.00,WeatherDisplay:10.37,2013-04-14 12:02:00,
2013-04-14 07:07:00,60.6,58.3,29.70,SSE,158,2.3,2.3,92,0.00,CLR,,0.00,WeatherDisplay:10.37,2013-04-14 12:07:00,
2013-04-14 07:12:00,60.7,58.1,29.70,SSW,195,2.3,2.3,91,0.00,CLR,,0.00,WeatherDisplay:10.37,2013-04-14 12:12:00,
2013-04-14 07:17:00,60.7,58.1,29.70,SSW,193,3.5,3.5,91,0.00,CLR,,0.00,WeatherDisplay:10.37,2013-04-14 12:17:00,
2013-04-14 07:22:00,60.8,58.2,29.70,South,188,1.2,1.2,91,0.00,CLR,,0.00,WeatherDisplay:10.37,2013-04-14 12:22:00,
2013-04-14 07:27:00,60.8,58.2,29.70,South,188,1.0,0.0,91,0.00,CLR,,0.00,WeatherDisplay:10.37,2013-04-14 12:27:00,
2013-04-14 07:32:00,60.9,58.3,29.70,SW,223,2.3,2.3,91,0.00,CLR,,0.00,WeatherDisplay:10.37,2013-04-14 12:32:00,
2013-04-14 07:37:00,61.0,58.4,29.70,SW,217,1.2,1.2,91,0.00,CLR,,0.00,WeatherDisplay:10.37,2013-04-14 12:37:00,
2013-04-14 07:42:00,61.1,58.5,29.70,South,186,2.3,2.3,91,0.00,CLR,,0.00,WeatherDisplay:10.37,2013-04-14 12:42:00,
2013-04-14 07:47:00,61.2,58.6,29.70,SW,221,2.3,0.0,91,0.00,CLR,,0.00,WeatherDisplay:10.37,2013-04-14 12:47:00,
2013-04-14 07:52:00,61.2,58.6,29.70,South,182,3.0,3.0,91,0.00,CLR,,0.00,WeatherDisplay:10.37,2013-04-14 12:52:00,
2013-04-14 07:57:00,61.3,58.7,29.70,SSW,209,3.5,3.5,91,0.00,CLR,,0.00,WeatherDisplay:10.37,2013-04-14 12:57:00,
2013-04-14 08:02:00,61.5,58.8,29.70,South,175,3.5,3.5,91,0.00,CLR,,0.00,WeatherDisplay:10.37,2013-04-14 13:02:00,
2013-04-14 08:07:00,61.6,59.3,29.71,SW,235,3.5,0.0,92,0.00,CLR,,0.00,WeatherDisplay:10.37,2013-04-14 13:07:00,
2013-04-14 08:12:00,61.7,59.0,29.71,SE,145,3.5,3.5,91,0.00,CLR,,0.00,WeatherDisplay:10.37,2013-04-14 13:12:00,
2013-04-14 08:17:00,61.8,59.1,29.71,SSW,208,4.0,4.0,91,0.00,CLR,,0.00,WeatherDisplay:10.37,2013-04-14 13:17:00,
2013-04-14 08:22:00,61.9,59.2,29.71,WNW,284,1.2,1.2,91,0.00,CLR,,0.00,WeatherDisplay:10.37,2013-04-14 13:22:00,
2013-04-14 08:27:00,62.0,59.3,29.71,SW,223,3.5,3.5,91,0.00,CLR,,0.00,WeatherDisplay:10.37,2013-04-14 13:27:00,
2013-04-14 08:32:00,62.1,59.4,29.72,South,188,3.5,3.5,91,0.00,CLR,,0.00,WeatherDisplay:10.37,2013-04-14 13:32:00,
2013-04-14 08:37:00,62.2,59.5,29.72,SSE,162,3.0,3.0,91,0.00,CLR,,0.00,WeatherDisplay:10.37,2013-04-14 13:37:00,
2013-04-14 08:42:00,62.3,59.6,29.72,SSW,195,3.0,3.0,91,0.00,CLR,,0.00,WeatherDisplay:10.37,2013-04-14 13:42:00,
2013-04-14 08:47:00,62.3,59.6,29.72,SSE,167,3.5,3.5,91,0.00,CLR,,0.00,WeatherDisplay:10.37,2013-04-14 13:47:00,
2013-04-14 08:52:00,62.4,59.7,29.72,SSW,196,4.6,4.6,91,0.00,CLR,,0.00,WeatherDisplay:10.37,2013-04-14 13:52:00,
2013-04-14 08:57:00,62.5,59.8,29.72,SSW,211,1.2,1.2,91,0.00,CLR,,0.00,WeatherDisplay:10.37,2013-04-14 13:57:00,
2013-04-14 09:02:00,62.6,59.9,29.72,South,184,3.5,3.5,91,0.00,CLR,,0.00,WeatherDisplay:10.37,2013-04-14 14:02:00,
2013-04-14 09:07:00,62.7,60.0,29.72,SSE,157,3.5,3.5,91,0.00,CLR,,0.00,WeatherDisplay:10.37,2013-04-14 14:07:00,
2013-04-14 09:12:00,62.8,60.1,29.72,SE,138,3.5,3.5,91,0.00,CLR,,0.00,WeatherDisplay:10.37,2013-04-14 14:12:00,
2013-04-14 09:17:00,62.9,60.2,29.72,South,180,3.5,3.5,91,0.00,CLR,,0.00,WeatherDisplay:10.37,2013-04-14 14:17:00,
2013-04-14 09:22:00,63.0,60.3,29.72,SSW,196,3.0,3.0,91,0.00,CLR,,0.00,WeatherDisplay:10.37,2013-04-14 14:22:00,
2013-04-14 09:27:00,63.1,60.7,29.72,SSW,203,0.0,0.0,92,0.00,CLR,,0.00,WeatherDisplay:10.37,2013-04-14 14:27:00,
2013-04-14 09:32:00,63.3,60.6,29.72,SSE,150,5.8,5.8,91,0.00,CLR,,0.00,WeatherDisplay:10.37,2013-04-14 14:32:00,
2013-04-14 09:38:00,63.5,60.8,29.72,West,275,2.3,2.3,91,0.00,CLR,,0.00,WeatherDisplay:10.37,2013-04-14 14:38:00,
2013-04-14 09:43:00,63.6,60.9,29.72,SSW,205,1.2,1.2,91,0.00,CLR,,0.00,WeatherDisplay:10.37,2013-04-14 14:43:00,
2013-04-14 09:48:00,63.8,61.1,29.72,South,185,4.0,4.0,91,0.00,CLR,,0.00,WeatherDisplay:10.37,2013-04-14 14:48:00,
2013-04-14 09:53:00,64.1,61.4,29.72,South,190,4.6,4.6,91,0.00,CLR,,0.00,WeatherDisplay:10.37,2013-04-14 14:53:00,
2013-04-14 09:58:00,64.3,61.6,29.72,SW,222,3.5,3.5,91,0.00,CLR,,0.00,WeatherDisplay:10.37,2013-04-14 14:58:00,
2013-04-14 10:03:00,64.5,61.5,29.72,SW,217,6.9,6.9,90,0.00,CLR,,0.00,WeatherDisplay:10.37,2013-04-14 15:03:00,
2013-04-14 10:08:00,64.8,61.8,29.73,South,171,9.2,9.2,90,0.00,CLR,,0.00,WeatherDisplay:10.37,2013-04-14 15:08:00,
2013-04-14 10:13:00,64.9,61.9,29.73,South,191,3.5,3.5,90,0.00,CLR,,0.00,WeatherDisplay:10.37,2013-04-14 15:13:00,
2013-04-14 10:18:00,65.1,62.1,29.72,SW,214,6.9,6.9,90,0.00,CLR,,0.00,WeatherDisplay:10.37,2013-04-14 15:18:00,
2013-04-14 10:23:00,65.3,62.0,29.72,WSW,258,4.6,4.6,89,0.00,CLR,,0.00,WeatherDisplay:10.37,2013-04-14 15:23:00,
2013-04-14 10:28:00,65.6,62.3,29.73,SSW,213,3.5,3.5,89,0.00,CLR,,0.00,WeatherDisplay:10.37,2013-04-14 15:28:00,
2013-04-14 10:33:00,65.9,62.6,29.72,WSW,255,4.6,4.6,89,0.00,CLR,,0.00,WeatherDisplay:10.37,2013-04-14 15:33:00,
2013-04-14 10:38:00,66.2,62.9,29.72,SSE,162,3.5,3.5,89,0.00,CLR,,0.00,WeatherDisplay:10.37,2013-04-14 15:38:00,
2013-04-14 10:43:00,66.6,62.9,29.72,WSW,243,4.6,4.6,88,0.00,CLR,,0.00,WeatherDisplay:10.37,2013-04-14 15:43:00,
2013-04-14 10:48:00,66.9,62.9,29.72,South,191,5.8,5.8,87,0.00,CLR,,0.00,WeatherDisplay:10.37,2013-04-14 15:48:00,
2013-04-14 10:53:00,67.3,63.3,29.72,SW,219,4.6,4.6,87,0.00,CLR,,0.00,WeatherDisplay:10.37,2013-04-14 15:53:00,
2013-04-14 10:58:00,67.9,63.6,29.72,WSW,247,4.6,4.6,86,0.00,CLR,,0.00,WeatherDisplay:10.37,2013-04-14 15:58:00,
2013-04-14 11:03:00,68.6,64.2,29.72,West,276,8.1,8.1,86,0.00,CLR,,0.00,WeatherDisplay:10.37,2013-04-14 16:03:00,
2013-04-14 11:08:00,69.6,64.5,29.72,West,273,4.0,4.0,84,0.00,CLR,,0.00,WeatherDisplay:10.37,2013-04-14 16:08:00,
2013-04-14 11:13:00,70.4,64.6,29.72,WSW,244,6.9,6.9,82,0.00,CLR,,0.00,WeatherDisplay:10.37,2013-04-14 16:13:00,
2013-04-14 11:18:00,70.9,64.8,29.71,SSW,209,6.9,6.9,81,0.00,CLR,,0.00,WeatherDisplay:10.37,2013-04-14 16:18:00,
2013-04-14 11:23:00,71.3,64.4,29.71,SSW,194,4.6,4.6,79,0.00,CLR,,0.00,WeatherDisplay:10.37,2013-04-14 16:23:00,
2013-04-14 11:28:00,71.5,64.6,29.71,SW,230,5.8,5.8,79,0.00,CLR,,0.00,WeatherDisplay:10.37,2013-04-14 16:28:00,
2013-04-14 11:33:00,71.8,64.9,29.71,SSW,201,5.8,5.8,79,0.00,CLR,,0.00,WeatherDisplay:10.37,2013-04-14 16:33:00,
2013-04-14 11:38:00,72.4,64.8,29.71,South,186,11.5,11.5,77,0.00,CLR,,0.00,WeatherDisplay:10.37,2013-04-14 16:38:00,
2013-04-14 11:43:00,73.1,65.5,29.71,West,279,6.9,6.9,77,0.00,CLR,,0.00,WeatherDisplay:10.37,2013-04-14 16:43:00,
2013-04-14 11:48:00,73.7,65.3,29.71,WSW,239,6.0,6.0,75,0.00,CLR,,0.00,WeatherDisplay:10.37,2013-04-14 16:48:00,
2013-04-14 11:53:00,74.4,65.6,29.71,South,182,6.9,6.9,74,0.00,CLR,,0.00,WeatherDisplay:10.37,2013-04-14 16:53:00,
2013-04-14 11:58:00,74.8,65.6,29.70,WSW,240,8.1,8.1,73,0.00,CLR,,0.00,WeatherDisplay:10.37,2013-04-14 16:58:00,
2013-04-14 12:03:00,75.1,65.5,29.70,SSE,163,8.1,8.1,72,0.00,CLR,,0.00,WeatherDisplay:10.37,2013-04-14 17:03:00,
2013-04-14 12:08:00,75.6,65.9,29.70,West,266,8.1,8.1,72,0.00,CLR,,0.00,WeatherDisplay:10.37,2013-04-14 17:08:00,
2013-04-14 12:13:00,76.1,66.0,29.70,SSW,197,8.1,8.1,71,0.00,CLR,,0.00,WeatherDisplay:10.37,2013-04-14 17:13:00,
2013-04-14 12:18:00,76.6,66.1,29.70,WSW,255,9.2,9.2,70,0.00,CLR,,0.00,WeatherDisplay:10.37,2013-04-14 17:18:00,
2013-04-14 12:23:00,77.1,65.7,29.70,NW,324,6.9,6.9,68,0.00,CLR,,0.00,WeatherDisplay:10.37,2013-04-14 17:23:00,
2013-04-14 12:28:00,77.2,65.4,29.70,SSW,206,5.8,5.8,67,0.00,CLR,,0.00,WeatherDisplay:10.37,2013-04-14 17:28:00,
2013-04-14 12:33:00,77.4,66.0,29.70,SSW,205,8.1,8.1,68,0.00,CLR,,0.00,WeatherDisplay:10.37,2013-04-14 17:33:00,
2013-04-14 12:38:00,77.8,66.0,29.70,West,259,6.9,6.9,67,0.00,CLR,,0.00,WeatherDisplay:10.37,2013-04-14 17:38:00,
2013-04-14 12:43:00,78.1,65.8,29.70,South,175,10.4,10.4,66,0.00,CLR,,0.00,WeatherDisplay:10.37,2013-04-14 17:43:00,
2013-04-14 12:48:00,78.7,65.9,29.70,South,185,5.8,5.8,65,0.00,CLR,,0.00,WeatherDisplay:10.37,2013-04-14 17:48:00,
2013-04-14 12:54:00,79.1,65.9,29.69,WSW,242,6.0,6.0,64,0.00,CLR,,0.00,WeatherDisplay:10.37,2013-04-14 17:54:00,
2013-04-14 12:59:00,79.2,66.0,29.69,SE,134,5.8,5.8,64,0.00,CLR,,0.00,WeatherDisplay:10.37,2013-04-14 17:59:00,
2013-04-14 13:04:00,79.4,66.2,29.69,NNW,327,6.9,6.9,64,0.00,CLR,,0.00,WeatherDisplay:10.37,2013-04-14 18:04:00,
2013-04-14 13:09:00,79.8,66.5,29.69,SW,231,4.6,4.6,64,0.00,CLR,,0.00,WeatherDisplay:10.37,2013-04-14 18:09:00,
2013-04-14 13:14:00,80.2,66.0,29.68,South,184,12.7,12.7,62,0.00,CLR,,0.00,WeatherDisplay:10.37,2013-04-14 18:14:00,
2013-04-14 13:19:00,80.3,66.6,29.68,SSE,163,8.1,8.1,63,0.00,CLR,,0.00,WeatherDisplay:10.37,2013-04-14 18:19:00,
2013-04-14 13:24:00,80.7,66.5,29.68,NW,317,10.4,10.4,62,0.00,CLR,,0.00,WeatherDisplay:10.37,2013-04-14 18:24:00,
2013-04-14 13:29:00,81.0,66.3,29.67,WSW,244,3.5,3.5,61,0.00,CLR,,0.00,WeatherDisplay:10.37,2013-04-14 18:29:00,
2013-04-14 13:34:00,81.4,66.2,29.67,SSW,205,5.8,5.8,60,0.00,CLR,,0.00,WeatherDisplay:10.37,2013-04-14 18:34:00,
2013-04-14 13:39:00,81.8,66.1,29.67,SW,223,8.1,8.1,59,0.00,CLR,,0.00,WeatherDisplay:10.37,2013-04-14 18:39:00,
2013-04-14 13:44:00,82.1,66.4,29.67,SE,132,4.6,4.6,59,0.00,CLR,,0.00,WeatherDisplay:10.37,2013-04-14 18:44:00,
2013-04-14 13:49:00,82.4,66.6,29.67,SSE,153,5.8,5.8,59,0.00,CLR,,0.00,WeatherDisplay:10.37,2013-04-14 18:49:00,
2013-04-14 13:54:00,82.8,66.5,29.66,South,189,5.8,5.8,58,0.00,CLR,,0.00,WeatherDisplay:10.37,2013-04-14 18:54:00,
2013-04-14 13:59:00,83.1,66.8,29.66,SSE,167,8.1,8.1,58,0.00,CLR,,0.00,WeatherDisplay:10.37,2013-04-14 18:59:00,
2013-04-14 14:04:00,83.4,67.1,29.66,ESE,115,11.5,11.5,58,0.00,CLR,,0.00,WeatherDisplay:10.37,2013-04-14 19:04:00,
2013-04-14 14:09:00,83.4,66.6,29.65,SE,140,3.5,3.5,57,0.00,CLR,,0.00,WeatherDisplay:10.37,2013-04-14 19:09:00,
2013-04-14 14:14:00,83.7,66.3,29.65,South,171,8.1,8.1,56,0.00,CLR,,0.00,WeatherDisplay:10.37,2013-04-14 19:14:00,
2013-04-14 14:19:00,83.9,66.5,29.65,South,169,8.1,8.1,56,0.00,CLR,,0.00,WeatherDisplay:10.37,2013-04-14 19:19:00,
2013-04-14 14:24:00,84.2,66.8,29.65,South,186,8.1,8.1,56,0.00,CLR,,0.00,WeatherDisplay:10.37,2013-04-14 19:24:00,
2013-04-14 14:29:00,84.7,66.7,29.65,WSW,255,7.0,7.0,55,0.00,CLR,,0.00,WeatherDisplay:10.37,2013-04-14 19:29:00,
2013-04-14 14:34:00,84.9,67.5,29.65,South,173,4.6,4.6,56,0.00,CLR,,0.00,WeatherDisplay:10.37,2013-04-14 19:34:00,
2013-04-14 14:39:00,85.1,67.1,29.64,SSE,154,8.1,8.1,55,0.00,CLR,,0.00,WeatherDisplay:10.37,2013-04-14 19:39:00,
2013-04-14 14:44:00,85.3,67.3,29.64,South,180,5.8,5.8,55,0.00,CLR,,0.00,WeatherDisplay:10.37,2013-04-14 19:44:00,
2013-04-14 14:49:00,85.5,66.4,29.63,WSW,254,4.0,4.0,53,0.00,CLR,,0.00,WeatherDisplay:10.37,2013-04-14 19:49:00,
2013-04-14 14:54:00,85.6,66.5,29.63,East,99,6.9,6.9,53,0.00,CLR,,0.00,WeatherDisplay:10.37,2013-04-14 19:54:00,
2013-04-14 14:59:00,85.7,66.6,29.63,West,278,6.9,6.9,53,0.00,CLR,,0.00,WeatherDisplay:10.37,2013-04-14 19:59:00,
2013-04-14 15:04:00,85.7,67.1,29.63,South,186,7.0,7.0,54,0.00,CLR,,0.00,WeatherDisplay:10.37,2013-04-14 20:04:00,
2013-04-14 15:09:00,85.7,66.6,29.63,WNW,302,6.9,6.9,53,0.00,CLR,,0.00,WeatherDisplay:10.37,2013-04-14 20:09:00,
2013-04-14 15:14:00,85.8,67.2,29.62,SSW,195,10.4,10.4,54,0.00,CLR,,0.00,WeatherDisplay:10.37,2013-04-14 20:14:00,
2013-04-14 15:19:00,85.8,66.7,29.62,South,177,5.8,5.8,53,0.00,CLR,,0.00,WeatherDisplay:10.37,2013-04-14 20:19:00,
2013-04-14 15:24:00,85.9,66.8,29.62,SE,145,6.9,6.9,53,0.00,CLR,,0.00,WeatherDisplay:10.37,2013-04-14 20:24:00,
2013-04-14 15:29:00,85.8,67.2,29.62,SSW,193,5.8,5.8,54,0.00,CLR,,0.00,WeatherDisplay:10.37,2013-04-14 20:29:00,
2013-04-14 15:34:00,86.0,66.9,29.61,SW,223,4.6,4.6,53,0.00,CLR,,0.00,WeatherDisplay:10.37,2013-04-14 20:34:00,
2013-04-14 15:39:00,86.1,67.0,29.61,South,182,5.8,5.8,53,0.00,CLR,,0.00,WeatherDisplay:10.37,2013-04-14 20:39:00,
2013-04-14 15:44:00,86.2,66.5,29.61,SSE,161,11.5,11.5,52,0.00,CLR,,0.00,WeatherDisplay:10.37,2013-04-14 20:44:00,
2013-04-14 15:49:00,86.2,66.5,29.61,SW,226,10.4,10.4,52,0.00,CLR,,0.00,WeatherDisplay:10.37,2013-04-14 20:49:00,
2013-04-14 15:54:00,86.1,65.9,29.61,SSW,198,5.8,5.8,51,0.00,CLR,,0.00,WeatherDisplay:10.37,2013-04-14 20:54:00,
2013-04-14 15:59:00,86.1,66.4,29.60,SSE,161,4.0,4.0,52,0.00,CLR,,0.00,WeatherDisplay:10.37,2013-04-14 20:59:00,
2013-04-14 16:04:00,86.3,66.6,29.60,West,279,4.6,4.6,52,0.00,CLR,,0.00,WeatherDisplay:10.37,2013-04-14 21:04:00,
2013-04-14 16:09:00,86.5,66.2,29.60,South,177,5.8,5.8,51,0.00,CLR,,0.00,WeatherDisplay:10.37,2013-04-14 21:09:00,
2013-04-14 16:14:00,86.6,66.3,29.60,ESE,122,11.5,11.5,51,0.00,CLR,,0.00,WeatherDisplay:10.37,2013-04-14 21:14:00,
2013-04-14 16:19:00,86.6,65.7,29.59,West,268,3.5,3.5,50,0.00,CLR,,0.00,WeatherDisplay:10.37,2013-04-14 21:19:00,
2013-04-14 16:24:00,86.7,64.7,29.59,SSW,193,8.1,8.1,48,0.00,CLR,,0.00,WeatherDisplay:10.37,2013-04-14 21:24:00,
2013-04-14 16:29:00,86.7,64.7,29.59,SW,217,9.2,9.2,48,0.00,CLR,,0.00,WeatherDisplay:10.37,2013-04-14 21:29:00,
2013-04-14 16:34:00,86.6,65.2,29.59,ENE,76,8.1,8.1,49,0.00,CLR,,0.00,WeatherDisplay:10.37,2013-04-14 21:34:00,
2013-04-14 16:39:00,86.5,65.7,29.59,WSW,250,3.5,3.5,50,0.00,CLR,,0.00,WeatherDisplay:10.37,2013-04-14 21:39:00,
2013-04-14 16:44:00,86.6,64.6,29.59,SSW,193,6.9,6.9,48,0.00,CLR,,0.00,WeatherDisplay:10.37,2013-04-14 21:44:00,
2013-04-14 16:49:00,86.7,65.3,29.59,South,177,8.1,8.1,49,0.00,CLR,,0.00,WeatherDisplay:10.37,2013-04-14 21:49:00,
2013-04-14 16:54:00,86.7,64.1,29.59,South,173,6.9,6.9,47,0.00,CLR,,0.00,WeatherDisplay:10.37,2013-04-14 21:54:00,
2013-04-14 16:59:00,86.7,64.7,29.58,South,187,5.8,5.8,48,0.00,CLR,,0.00,WeatherDisplay:10.37,2013-04-14 21:59:00,
2013-04-14 17:04:00,86.7,64.7,29.58,East,96,5.0,5.0,48,0.00,CLR,,0.00,WeatherDisplay:10.37,2013-04-14 22:04:00,
2013-04-14 17:09:00,86.7,64.1,29.58,SW,224,3.5,3.5,47,0.00,CLR,,0.00,WeatherDisplay:10.37,2013-04-14 22:09:00,
2013-04-14 17:14:00,86.7,63.4,29.58,SE,140,8.1,8.1,46,0.00,CLR,,0.00,WeatherDisplay:10.37,2013-04-14 22:14:00,
2013-04-14 17:19:00,86.8,63.5,29.58,SSW,211,4.6,4.6,46,0.00,CLR,,0.00,WeatherDisplay:10.37,2013-04-14 22:19:00,
2013-04-14 17:24:00,86.8,62.9,29.58,SSE,165,8.1,8.1,45,0.00,CLR,,0.00,WeatherDisplay:10.37,2013-04-14 22:24:00,
2013-04-14 17:29:00,86.8,62.9,29.58,ESE,107,3.5,3.6,45,0.00,CLR,,0.00,WeatherDisplay:10.37,2013-04-14 22:29:00,
2013-04-14 17:34:00,86.8,62.3,29.58,South,175,6.9,6.9,44,0.00,CLR,,0.00,WeatherDisplay:10.37,2013-04-14 22:34:00,
2013-04-14 17:39:00,86.7,61.5,29.57,West,280,2.3,2.3,43,0.00,CLR,,0.00,WeatherDisplay:10.37,2013-04-14 22:39:00,
2013-04-14 17:44:00,86.8,62.9,29.57,SSW,194,3.5,3.5,45,0.00,CLR,,0.00,WeatherDisplay:10.37,2013-04-14 22:44:00,
2013-04-14 17:49:00,86.8,63.5,29.57,SW,220,4.6,4.6,46,0.00,CLR,,0.00,WeatherDisplay:10.37,2013-04-14 22:49:00,
2013-04-14 17:54:00,86.7,62.8,29.57,WSW,246,3.5,3.5,45,0.00,CLR,,0.00,WeatherDisplay:10.37,2013-04-14 22:54:00,
2013-04-14 17:59:00,86.6,63.4,29.57,ESE,115,2.3,2.3,46,0.00,CLR,,0.00,WeatherDisplay:10.37,2013-04-14 22:59:00,
2013-04-14 18:04:00,86.5,63.3,29.57,ESE,116,3.5,3.5,46,0.00,CLR,,0.00,WeatherDisplay:10.37,2013-04-14 23:04:00,
2013-04-14 18:09:00,86.4,62.5,29.57,ENE,76,8.1,8.1,45,0.00,CLR,,0.00,WeatherDisplay:10.37,2013-04-14 23:09:00,
2013-04-14 18:14:00,86.3,63.1,29.57,South,190,4.6,4.6,46,0.00,CLR,,0.00,WeatherDisplay:10.37,2013-04-14 23:14:00,
2013-04-14 18:19:00,86.3,63.7,29.57,WSW,248,3.5,0.0,47,0.00,CLR,,0.00,WeatherDisplay:10.37,2013-04-14 23:19:00,
2013-04-14 18:24:00,86.0,63.4,29.57,SSW,206,4.6,4.6,47,0.00,CLR,,0.00,WeatherDisplay:10.37,2013-04-14 23:24:00,
2013-04-14 18:29:00,85.9,63.3,29.57,SE,146,5.0,5.0,47,0.00,CLR,,0.00,WeatherDisplay:10.37,2013-04-14 23:29:00,
2013-04-14 18:34:00,85.7,63.1,29.57,SSE,148,8.1,8.1,47,0.00,CLR,,0.00,WeatherDisplay:10.37,2013-04-14 23:34:00,
2013-04-14 18:39:00,85.6,63.1,29.57,SE,136,6.9,6.9,47,0.00,CLR,,0.00,WeatherDisplay:10.37,2013-04-14 23:39:00,
2013-04-14 18:44:00,85.4,62.9,29.57,SSE,159,3.5,3.5,47,0.00,CLR,,0.00,WeatherDisplay:10.37,2013-04-14 23:44:00,
2013-04-14 18:49:00,85.2,62.1,29.57,SE,139,5.0,5.0,46,0.00,CLR,,0.00,WeatherDisplay:10.37,2013-04-14 23:49:00,
2013-04-14 18:54:00,85.0,62.5,29.57,SSE,153,3.5,3.5,47,0.00,CLR,,0.00,WeatherDisplay:10.37,2013-04-14 23:54:00,
2013-04-14 18:59:00,84.8,61.7,29.58,SE,138,6.9,6.9,46,0.00,CLR,,0.00,WeatherDisplay:10.37,2013-04-14 23:59:00,
2013-04-14 19:04:00,84.7,62.2,29.58,SSW,205,4.6,4.6,47,0.00,CLR,,0.00,WeatherDisplay:10.37,2013-04-15 00:04:00,
2013-04-14 19:09:00,84.5,61.4,29.58,SE,135,5.8,5.8,46,0.00,CLR,,0.00,WeatherDisplay:10.37,2013-04-15 00:09:00,
2013-04-14 19:14:00,84.4,62.0,29.58,South,173,6.0,6.0,47,0.00,CLR,,0.00,WeatherDisplay:10.37,2013-04-15 00:14:00,
2013-04-14 19:19:00,84.3,61.9,29.58,South,188,2.3,2.3,47,0.00,CLR,,0.00,WeatherDisplay:10.37,2013-04-15 00:19:00,
2013-04-14 19:24:00,84.0,62.2,29.58,SSW,198,4.0,4.0,48,0.00,CLR,,0.00,WeatherDisplay:10.37,2013-04-15 00:24:00,
2013-04-14 19:29:00,83.8,62.0,29.58,South,169,1.2,1.2,48,0.00,CLR,,0.00,WeatherDisplay:10.37,2013-04-15 00:29:00,
2013-04-14 19:34:00,83.4,62.2,29.58,SW,214,2.3,2.3,49,0.00,CLR,,0.00,WeatherDisplay:10.37,2013-04-15 00:34:00,
2013-04-14 19:39:00,83.2,62.1,29.58,South,180,1.2,1.2,49,0.00,CLR,,0.00,WeatherDisplay:10.37,2013-04-15 00:39:00,
2013-04-14 19:44:00,82.8,62.3,29.58,SSW,198,0.0,0.0,50,0.00,CLR,,0.00,WeatherDisplay:10.37,2013-04-15 00:44:00,
2013-04-14 19:49:00,82.3,61.8,29.58,SSW,203,1.2,0.0,50,0.00,CLR,,0.00,WeatherDisplay:10.37,2013-04-15 00:49:00,
2013-04-14 19:54:00,81.9,61.4,29.58,SSW,202,1.2,1.2,50,0.00,CLR,,0.00,WeatherDisplay:10.37,2013-04-15 00:54:00,
2013-04-14 19:59:00,81.4,61.5,29.58,SSW,202,1.2,1.2,51,0.00,CLR,,0.00,WeatherDisplay:10.37,2013-04-15 00:59:00,
2013-04-14 20:04:00,80.9,61.1,29.58,SSW,202,0.0,0.0,51,0.00,CLR,,0.00,WeatherDisplay:10.37,2013-04-15 01:04:00,
2013-04-14 20:09:00,80.4,60.6,29.58,SSW,202,0.0,0.0,51,0.00,CLR,,0.00,WeatherDisplay:10.37,2013-04-15 01:09:00,
2013-04-14 20:14:00,79.9,60.7,29.58,SSW,202,0.0,0.0,52,0.00,CLR,,0.00,WeatherDisplay:10.37,2013-04-15 01:14:00,
2013-04-14 20:19:00,79.3,60.1,29.58,SSW,202,0.0,0.0,52,0.00,CLR,,0.00,WeatherDisplay:10.37,2013-04-15 01:19:00,
2013-04-14 20:24:00,78.6,60.0,29.58,SSW,202,0.0,0.0,53,0.00,CLR,,0.00,WeatherDisplay:10.37,2013-04-15 01:24:00,
2013-04-14 20:29:00,78.0,60.0,29.58,SSW,202,0.0,0.0,54,0.00,CLR,,0.00,WeatherDisplay:10.37,2013-04-15 01:29:00,
2013-04-14 20:34:00,77.3,59.9,29.58,SSW,192,2.3,0.0,55,0.00,CLR,,0.00,WeatherDisplay:10.37,2013-04-15 01:34:00,
2013-04-14 20:39:00,76.7,60.3,29.58,SSW,192,1.2,1.2,57,0.00,CLR,,0.00,WeatherDisplay:10.37,2013-04-15 01:39:00,
2013-04-14 20:44:00,76.1,59.8,29.58,SSW,192,1.2,0.0,57,0.00,CLR,,0.00,WeatherDisplay:10.37,2013-04-15 01:44:00,
2013-04-14 20:49:00,75.6,59.8,29.59,SSW,192,1.2,1.2,58,0.00,CLR,,0.00,WeatherDisplay:10.37,2013-04-15 01:49:00,
2013-04-14 20:54:00,75.2,59.9,29.59,SSW,192,0.0,0.0,59,0.00,CLR,,0.00,WeatherDisplay:10.37,2013-04-15 01:54:00,
2013-04-14 20:59:00,74.8,60.0,29.59,SSW,192,0.0,0.3,60,0.00,CLR,,0.00,WeatherDisplay:10.37,2013-04-15 01:59:00,
2013-04-14 21:04:00,74.4,59.6,29.59,SSW,192,0.0,0.0,60,0.00,CLR,,0.00,WeatherDisplay:10.37,2013-04-15 02:04:00,
2013-04-14 21:09:00,74.0,59.7,29.59,SSW,192,0.0,0.0,61,0.00,CLR,,0.00,WeatherDisplay:10.37,2013-04-15 02:09:00,
2013-04-14 21:14:00,73.7,59.9,29.59,SSW,192,0.0,0.0,62,0.00,CLR,,0.00,WeatherDisplay:10.37,2013-04-15 02:14:00,
2013-04-14 21:19:00,73.5,59.7,29.59,SSW,192,1.2,0.0,62,0.00,CLR,,0.00,WeatherDisplay:10.37,2013-04-15 02:19:00,
2013-04-14 21:24:00,73.2,59.8,29.59,SSW,192,0.0,0.0,63,0.00,CLR,,0.00,WeatherDisplay:10.37,2013-04-15 02:24:00,
2013-04-14 21:29:00,72.9,59.6,29.59,SSW,192,0.0,0.0,63,0.00,CLR,,0.00,WeatherDisplay:10.37,2013-04-15 02:29:00,
2013-04-14 21:34:00,72.7,60.3,29.60,SSE,162,2.0,0.0,65,0.00,CLR,,0.00,WeatherDisplay:10.37,2013-04-15 02:34:00,
2013-04-14 21:39:00,72.5,60.1,29.61,ESE,120,5.8,5.8,65,0.00,CLR,,0.00,WeatherDisplay:10.37,2013-04-15 02:39:00,
2013-04-14 21:44:00,72.8,61.2,29.61,SE,142,3.5,3.5,67,0.00,CLR,,0.00,WeatherDisplay:10.37,2013-04-15 02:44:00,
2013-04-14 21:49:00,73.3,62.9,29.61,ESE,117,3.5,3.5,70,0.00,CLR,,0.00,WeatherDisplay:10.37,2013-04-15 02:49:00,
2013-04-14 21:54:00,73.9,63.5,29.61,SSE,148,2.0,2.0,70,0.00,CLR,,0.00,WeatherDisplay:10.37,2013-04-15 02:54:00,
2013-04-14 21:59:00,74.3,64.3,29.61,SE,142,3.5,3.5,71,0.00,CLR,,0.00,WeatherDisplay:10.37,2013-04-15 02:59:00,
2013-04-14 22:04:00,74.7,64.7,29.62,ESE,113,3.5,3.5,71,0.00,CLR,,0.00,WeatherDisplay:10.37,2013-04-15 03:04:00,
2013-04-14 22:09:00,75.1,65.5,29.62,SSE,163,5.8,5.8,72,0.00,CLR,,0.00,WeatherDisplay:10.37,2013-04-15 03:09:00,
2013-04-14 22:14:00,75.4,66.1,29.62,SE,124,3.5,3.5,73,0.00,CLR,,0.00,WeatherDisplay:10.37,2013-04-15 03:14:00,
2013-04-14 22:19:00,75.6,66.3,29.62,ENE,67,3.5,3.5,73,0.00,CLR,,0.00,WeatherDisplay:10.37,2013-04-15 03:19:00,
2013-04-14 22:24:00,75.8,66.5,29.62,ESE,123,3.5,3.5,73,0.00,CLR,,0.00,WeatherDisplay:10.37,2013-04-15 03:24:00,
2013-04-14 22:29:00,76.0,67.1,29.63,ESE,113,6.9,6.9,74,0.00,CLR,,0.00,WeatherDisplay:10.37,2013-04-15 03:29:00,
2013-04-14 22:34:00,76.1,67.2,29.63,South,176,4.6,4.6,74,0.00,CLR,,0.00,WeatherDisplay:10.37,2013-04-15 03:34:00,
2013-04-14 22:39:00,76.1,67.2,29.63,East,79,3.5,3.5,74,0.00,CLR,,0.00,WeatherDisplay:10.37,2013-04-15 03:39:00,
2013-04-14 22:44:00,76.1,67.2,29.63,SSW,202,4.6,4.6,74,0.00,CLR,,0.00,WeatherDisplay:10.37,2013-04-15 03:44:00,
2013-04-14 22:49:00,75.9,67.4,29.64,SSE,147,3.5,3.5,75,0.00,CLR,,0.00,WeatherDisplay:10.37,2013-04-15 03:49:00,
2013-04-14 22:55:00,75.9,67.4,29.64,SE,143,8.1,8.1,75,0.00,CLR,,0.00,WeatherDisplay:10.37,2013-04-15 03:55:00,
2013-04-14 23:00:00,75.7,67.2,29.64,SSE,151,6.9,6.9,75,0.00,CLR,,0.00,WeatherDisplay:10.37,2013-04-15 04:00:00,
2013-04-14 23:01:00,75.7,67.2,29.64,SE,131,4.6,4.6,75,0.00,CLR,,0.00,WeatherDisplay:10.37,2013-04-15 04:01:00,
2013-04-14 23:05:00,75.6,67.5,29.64,ENE,63,9.2,9.2,76,0.00,CLR,,0.00,WeatherDisplay:10.37,2013-04-15 04:05:00,
2013-04-14 23:10:00,75.5,67.4,29.64,SE,146,2.3,2.3,76,0.00,CLR,,0.00,WeatherDisplay:10.37,2013-04-15 04:10:00,
2013-04-14 23:15:00,75.3,67.2,29.64,South,169,2.3,2.3,76,0.00,CLR,,0.00,WeatherDisplay:10.37,2013-04-15 04:15:00,
2013-04-14 23:20:00,75.2,67.5,29.65,SSW,209,3.5,3.5,77,0.00,CLR,,0.00,WeatherDisplay:10.37,2013-04-15 04:20:00,
2013-04-14 23:25:00,75.1,67.0,29.65,SSE,165,1.2,1.2,76,0.00,CLR,,0.00,WeatherDisplay:10.37,2013-04-15 04:25:00,
2013-04-14 23:30:00,74.9,67.2,29.65,SSE,151,2.3,2.3,77,0.00,CLR,,0.00,WeatherDisplay:10.37,2013-04-15 04:30:00,
2013-04-14 23:35:00,74.7,67.0,29.65,South,177,7.0,7.0,77,0.00,CLR,,0.00,WeatherDisplay:10.37,2013-04-15 04:35:00,
2013-04-14 23:40:00,74.4,67.1,29.65,SE,129,3.5,3.5,78,0.00,CLR,,0.00,WeatherDisplay:10.37,2013-04-15 04:40:00,
2013-04-14 23:45:00,74.2,66.9,29.65,South,178,2.3,2.3,78,0.00,CLR,,0.00,WeatherDisplay:10.37,2013-04-15 04:45:00,
2013-04-14 23:50:00,74.0,67.1,29.65,SSE,162,5.8,5.8,79,0.00,CLR,,0.00,WeatherDisplay:10.37,2013-04-15 04:50:00,
2013-04-14 23:55:00,73.7,66.8,29.65,SSW,205,2.3,2.3,79,0.00,CLR,,0.00,WeatherDisplay:10.37,2013-04-15 04:55:00,